Williamsfield, Illinois
Current Conditions -  °F | °C
As of 9:55 PM on Tuesday 27 Jan 2015 (Local Time) from KGBG Reporting Station
Overcast Overcast  
Wind Chill: 22°   Ceiling: 1000
Heat Index: 27°   Visibility: 10mi
Dew Point: 25°   Wind: 5mph
Humidity: 90%   Direction: 100°E
Pressure: 30.23"   Gusts: NA
Location:  40.92°N, 90.01°W
Report Text: KGBG 280355Z AUTO 10004KT 10SM OVC010 M03/M04 A3023 RMK AO2 T10261041
Loading
Personal Weather Stations






























Interactive Weather Map New forecast layout! Learn more

10-Day Weather Forecast

Advertisements
Track Severe Weather on mobile